Time;durP1;ratioP1;P1;durP2;ratioP2;P2;SDS_P1;SDS_P2;PMS_P1;PMS_P2;Temp;Humidity;BMP_temperature;BMP_pressure;BME280_temperature;BME280_humidity;BME280_pressure;Samples;Min_cycle;Max_cycle;Signal;HPM_P1;HPM_P2
2023/02/25 00:02:26;;;;;;;11.70;6.30;;;;;;;6.90;87.30;94541.11;108664;1274;22525;-80
2023/02/25 00:04:59;;;;;;;13.60;7.60;;;;;;;6.94;86.83;94522.83;108727;1269;25243;-80
2023/02/25 00:07:30;;;;;;;14.90;9.10;;;;;;;7.00;86.64;94518.66;108796;1273;25424;-80
2023/02/25 00:10:01;;;;;;;16.90;9.20;;;;;;;6.96;86.28;94514.34;108730;1269;22569;-80
2023/02/25 00:12:33;;;;;;;15.60;9.20;;;;;;;6.92;86.33;94511.57;108722;1274;23853;-80
2023/02/25 00:15:05;;;;;;;14.70;7.50;;;;;;;6.87;86.39;94508.73;108724;1266;22539;-80
2023/02/25 00:17:38;;;;;;;14.60;7.90;;;;;;;6.87;86.21;94495.48;108765;1273;22606;-80
2023/02/25 00:20:12;;;;;;;12.80;6.40;;;;;;;6.87;86.12;94496.77;108733;1267;25303;-80
2023/02/25 00:22:43;;;;;;;11.80;6.00;;;;;;;6.88;85.97;94492.80;108757;1254;23391;-80
2023/02/25 00:25:15;;;;;;;13.40;7.60;;;;;;;6.88;85.98;94494.33;108745;1273;22538;-80
2023/02/25 00:27:47;;;;;;;13.30;6.20;;;;;;;6.89;85.80;94484.13;108752;1273;22566;-80
2023/02/25 00:30:18;;;;;;;12.30;7.40;;;;;;;6.88;85.76;94470.83;108722;1267;25538;-80
2023/02/25 00:32:49;;;;;;;13.30;7.40;;;;;;;6.85;85.83;94476.97;108721;1273;28670;-81
2023/02/25 00:35:20;;;;;;;14.40;8.50;;;;;;;6.82;85.93;94479.91;108769;1268;22629;-80
2023/02/25 00:37:52;;;;;;;13.70;8.30;;;;;;;6.79;86.02;94475.26;108758;1274;22600;-80
2023/02/25 00:40:24;;;;;;;13.40;7.70;;;;;;;6.77;86.31;94475.48;108697;1262;24189;-80
2023/02/25 00:42:55;;;;;;;12.40;7.20;;;;;;;6.75;86.23;94469.20;108711;1274;22521;-80
2023/02/25 00:45:26;;;;;;;7.00;4.40;;;;;;;6.72;86.36;94460.33;108720;1274;22589;-80
2023/02/25 00:47:57;;;;;;;13.40;6.00;;;;;;;6.71;86.61;94457.50;108757;1250;22541;-80
2023/02/25 00:50:28;;;;;;;10.70;5.30;;;;;;;6.72;86.33;94450.60;108753;1273;22533;-80
2023/02/25 00:52:59;;;;;;;7.90;4.50;;;;;;;6.78;86.05;94439.99;108724;1262;23730;-80
2023/02/25 00:55:32;;;;;;;7.30;3.60;;;;;;;6.94;85.32;94440.80;108776;1274;22525;-80
2023/02/25 00:58:03;;;;;;;8.40;4.10;;;;;;;7.03;84.85;94440.37;108712;1266;22625;-80
2023/02/25 01:00:34;;;;;;;7.00;3.80;;;;;;;7.04;84.37;94426.13;108707;1273;22530;-79
2023/02/25 01:03:05;;;;;;;6.50;4.20;;;;;;;7.06;84.12;94424.25;108780;1273;22882;-80
2023/02/25 01:05:42;;;;;;;5.60;2.70;;;;;;;7.02;84.55;94415.91;108769;1273;23860;-80
2023/02/25 01:08:14;;;;;;;6.50;3.80;;;;;;;6.98;84.13;94412.66;108731;1271;22831;-80
2023/02/25 01:10:46;;;;;;;8.40;4.40;;;;;;;6.99;84.11;94403.66;108669;1273;24150;-80
2023/02/25 01:13:17;;;;;;;7.70;3.90;;;;;;;6.99;83.94;94404.36;108747;1270;22874;-81
2023/02/25 01:15:49;;;;;;;6.50;2.60;;;;;;;6.99;84.23;94399.77;108736;1274;22543;-81
2023/02/25 01:18:20;;;;;;;8.10;3.60;;;;;;;6.96;84.27;94394.60;108731;1262;22577;-81
2023/02/25 01:20:52;;;;;;;7.80;3.00;;;;;;;6.98;83.98;94393.70;108803;1250;22547;-80
2023/02/25 01:23:23;;;;;;;6.50;2.90;;;;;;;6.98;84.00;94404.48;108700;1273;22520;-81
2023/02/25 01:25:54;;;;;;;6.90;3.60;;;;;;;6.98;84.09;94401.70;108725;1274;24044;-80
2023/02/25 01:28:27;;;;;;;7.30;3.80;;;;;;;6.97;84.03;94400.52;108747;1274;23060;-81
2023/02/25 01:30:58;;;;;;;8.90;2.80;;;;;;;6.96;84.17;94395.13;108720;1267;22527;-80
2023/02/25 01:33:29;;;;;;;5.30;2.50;;;;;;;6.97;84.13;94396.77;108740;1266;24238;-80
2023/02/25 01:36:03;;;;;;;6.00;3.20;;;;;;;6.98;84.19;94396.89;108760;1273;22525;-81
2023/02/25 01:38:34;;;;;;;5.70;2.90;;;;;;;6.97;84.62;94392.70;108741;1274;22549;-81
2023/02/25 01:41:05;;;;;;;6.40;3.00;;;;;;;6.93;84.90;94392.52;108742;1274;25193;-80
2023/02/25 01:43:36;;;;;;;6.90;2.80;;;;;;;6.89;85.36;94388.11;108741;1272;22536;-81
2023/02/25 01:46:08;;;;;;;11.70;4.20;;;;;;;6.87;85.49;94391.70;108715;1266;22523;-81
2023/02/25 01:48:41;;;;;;;6.90;3.10;;;;;;;6.86;85.81;94382.04;108720;1273;22530;-82
2023/02/25 01:51:13;;;;;;;6.10;3.30;;;;;;;6.81;86.22;94382.45;108654;1269;49769;-81
2023/02/25 01:53:47;;;;;;;8.20;3.80;;;;;;;6.72;86.85;94390.35;108699;1275;22532;-81
2023/02/25 01:56:22;;;;;;;6.40;3.20;;;;;;;6.64;87.25;94390.32;108753;1274;26624;-81
2023/02/25 01:58:54;;;;;;;9.30;3.90;;;;;;;6.58;87.68;94393.39;108779;1274;25661;-81
2023/02/25 02:01:26;;;;;;;5.60;2.20;;;;;;;6.52;88.23;94395.58;108685;1267;22642;-81
2023/02/25 02:03:57;;;;;;;9.10;2.20;;;;;;;6.44;88.35;94393.29;108760;1274;24052;-81
2023/02/25 02:06:31;;;;;;;3.60;2.20;;;;;;;6.32;88.86;94401.53;108755;1273;23882;-81
2023/02/25 02:09:04;;;;;;;2.90;1.40;;;;;;;6.15;88.20;94408.18;108710;1273;22531;-81
2023/02/25 02:11:38;;;;;;;3.70;1.40;;;;;;;5.97;88.86;94404.98;108742;1274;24482;-81
2023/02/25 02:14:14;;;;;;;3.00;1.30;;;;;;;5.77;89.87;94405.04;108736;1250;25624;-81
2023/02/25 02:17:18;;;;;;;1.70;1.10;;;;;;;5.57;90.00;94401.15;108613;1269;22529;-81
2023/02/25 02:20:11;;;;;;;2.10;0.80;;;;;;;5.42;91.11;94409.15;109106;1274;22540;-82
2023/02/25 02:22:54;;;;;;;3.70;1.00;;;;;;;5.30;91.36;94410.06;109080;1273;22531;-81
2023/02/25 02:26:04;;;;;;;2.20;1.00;;;;;;;5.20;91.85;94409.39;109135;1274;22563;-82
2023/02/25 02:29:06;;;;;;;1.20;0.70;;;;;;;5.07;92.21;94407.33;108663;1274;23189;-82
2023/02/25 02:32:05;;;;;;;4.80;0.80;;;;;;;4.98;92.91;94407.73;108680;1274;25978;-82
2023/02/25 02:34:46;;;;;;;3.00;0.90;;;;;;;4.97;93.52;94397.36;108675;1270;22513;-82
2023/02/25 02:37:29;;;;;;;2.70;1.00;;;;;;;4.99;93.95;94399.27;108748;1271;22511;-82
2023/02/25 02:40:13;;;;;;;1.20;0.90;;;;;;;5.01;94.28;94415.27;108720;1274;26565;-81
2023/02/25 02:42:51;;;;;;;2.60;0.90;;;;;;;5.00;93.90;94416.66;108764;1274;22765;-81
2023/02/25 02:45:28;;;;;;;3.40;1.80;;;;;;;5.00;93.89;94406.85;108774;1274;22520;-81
2023/02/25 02:48:03;;;;;;;2.40;1.20;;;;;;;4.99;94.11;94401.08;108759;1271;22517;-81
2023/02/25 02:50:38;;;;;;;3.60;1.40;;;;;;;5.00;94.23;94391.29;108713;1266;22547;-80
2023/02/25 02:53:14;;;;;;;3.10;1.10;;;;;;;5.01;94.68;94385.86;108709;1273;23862;-81
2023/02/25 02:55:50;;;;;;;1.80;0.90;;;;;;;5.00;94.97;94389.15;108748;1269;22546;-81
2023/02/25 02:58:25;;;;;;;2.20;1.20;;;;;;;4.99;95.20;94384.48;108724;1274;22647;-81
2023/02/25 03:01:02;;;;;;;2.30;1.10;;;;;;;5.00;95.16;94389.84;108700;1274;23076;-81
2023/02/25 03:03:36;;;;;;;2.80;1.20;;;;;;;4.98;95.22;94394.86;108717;1274;23923;-81
2023/02/25 03:06:11;;;;;;;1.80;1.00;;;;;;;4.96;95.24;94393.55;108611;1269;117785;-81
2023/02/25 03:08:46;;;;;;;2.00;1.10;;;;;;;4.95;95.38;94387.39;108769;1273;22535;-81
2023/02/25 03:11:17;;;;;;;1.70;0.70;;;;;;;4.94;95.38;94385.98;108788;1274;22537;-81
2023/02/25 03:13:48;;;;;;;1.10;0.60;;;;;;;4.95;95.26;94384.44;108719;1274;23999;-81
2023/02/25 03:16:26;;;;;;;2.00;0.50;;;;;;;4.95;95.19;94390.05;108740;1274;24111;-81
2023/02/25 03:19:05;;;;;;;1.60;0.60;;;;;;;4.91;95.28;94394.39;108730;1274;22521;-81
2023/02/25 03:21:42;;;;;;;2.80;0.70;;;;;;;4.87;95.45;94395.78;108721;1274;23850;-81
2023/02/25 03:24:21;;;;;;;0.90;0.50;;;;;;;4.83;95.63;94401.41;108725;1274;22522;-81
2023/02/25 03:26:53;;;;;;;1.40;0.70;;;;;;;4.79;95.55;94399.70;108780;1273;23155;-81
2023/02/25 03:29:27;;;;;;;1.10;0.50;;;;;;;4.76;95.63;94396.80;108741;1274;22593;-81
2023/02/25 03:32:04;;;;;;;0.90;0.60;;;;;;;4.74;95.64;94395.95;108751;1273;24216;-81
2023/02/25 03:34:40;;;;;;;0.30;0.20;;;;;;;4.72;95.59;94391.85;108722;1272;23401;-81
2023/02/25 03:37:17;;;;;;;0.60;0.30;;;;;;;4.70;95.53;94384.18;108748;1274;23359;-81
2023/02/25 03:39:51;;;;;;;1.00;0.30;;;;;;;4.68;95.43;94381.61;108727;1274;22636;-80
2023/02/25 03:42:29;;;;;;;0.80;0.60;;;;;;;4.68;95.45;94381.88;108731;1274;25598;-81
2023/02/25 03:45:05;;;;;;;2.00;0.40;;;;;;;4.65;95.58;94374.48;108726;1272;22558;-81
2023/02/25 03:47:38;;;;;;;1.20;0.40;;;;;;;4.62;95.59;94373.54;108818;1274;22609;-81
2023/02/25 03:50:15;;;;;;;0.90;0.50;;;;;;;4.61;95.61;94366.52;108733;1274;23845;-81
2023/02/25 03:52:46;;;;;;;0.60;0.50;;;;;;;4.63;95.46;94363.92;108711;1273;24355;-81
2023/02/25 03:55:18;;;;;;;1.40;0.60;;;;;;;4.66;95.14;94366.44;108690;1273;22538;-81
2023/02/25 03:57:51;;;;;;;1.10;0.70;;;;;;;4.68;94.87;94371.27;108718;1266;22527;-81
2023/02/25 04:00:25;;;;;;;1.40;0.60;;;;;;;4.67;94.76;94364.58;108715;1274;22518;-80
2023/02/25 04:02:57;;;;;;;1.50;0.70;;;;;;;4.65;94.73;94359.73;108788;1260;22650;-80
2023/02/25 04:05:29;;;;;;;1.40;0.90;;;;;;;4.65;94.60;94360.63;108710;1256;25512;-81
2023/02/25 04:08:14;;;;;;;2.30;0.70;;;;;;;4.67;94.35;94353.75;108775;1272;22525;-80
2023/02/25 04:10:46;;;;;;;2.40;1.30;;;;;;;4.68;94.22;94359.01;108727;1274;24185;-80
2023/02/25 04:13:19;;;;;;;1.70;1.00;;;;;;;4.68;93.93;94355.30;108716;1274;22540;-80
2023/02/25 04:15:51;;;;;;;2.60;1.00;;;;;;;4.70;93.99;94359.89;108773;1266;25206;-80
2023/02/25 04:18:25;;;;;;;2.00;1.10;;;;;;;4.68;93.78;94355.67;108760;1272;25410;-80
2023/02/25 04:20:56;;;;;;;2.10;1.10;;;;;;;4.66;93.93;94359.39;108651;1256;22929;-81
2023/02/25 04:23:27;;;;;;;6.00;1.30;;;;;;;4.64;94.04;94359.79;108746;1274;22569;-80
2023/02/25 04:25:58;;;;;;;4.50;1.40;;;;;;;4.63;93.93;94356.08;108698;1274;22514;-81
2023/02/25 04:28:29;;;;;;;3.40;1.70;;;;;;;4.67;93.51;94364.89;108741;1274;23749;-81
2023/02/25 04:31:00;;;;;;;4.10;1.50;;;;;;;4.63;93.88;94373.38;108715;1274;22629;-81
2023/02/25 04:33:31;;;;;;;2.50;1.50;;;;;;;4.50;93.95;94388.44;108709;1252;22617;-80
2023/02/25 04:36:02;;;;;;;4.10;1.60;;;;;;;4.26;93.60;94385.50;108771;1274;24263;-82
2023/02/25 04:38:33;;;;;;;2.30;1.20;;;;;;;4.00;93.86;94391.50;108749;1273;23725;-81
2023/02/25 04:41:04;;;;;;;4.70;2.30;;;;;;;3.81;94.22;94392.11;108707;1273;22522;-82
2023/02/25 04:43:37;;;;;;;3.10;1.90;;;;;;;3.61;94.49;94390.64;108698;1274;22531;-81
2023/02/25 04:46:08;;;;;;;5.00;2.70;;;;;;;3.47;94.81;94396.52;109056;1266;22529;-81
2023/02/25 04:48:39;;;;;;;4.00;2.50;;;;;;;3.42;95.25;94389.38;108722;1272;22545;-81
2023/02/25 04:51:10;;;;;;;4.30;2.50;;;;;;;3.38;95.53;94394.52;108699;1273;22527;-81
2023/02/25 04:53:41;;;;;;;4.40;2.50;;;;;;;3.39;95.66;94409.02;109081;1273;22619;-81
2023/02/25 04:56:12;;;;;;;4.40;2.40;;;;;;;3.40;95.67;94449.13;108716;1267;22541;-82
2023/02/25 04:58:44;;;;;;;2.30;1.30;;;;;;;3.26;94.61;94447.70;108730;1266;24304;-83
2023/02/25 05:01:15;;;;;;;1.30;1.10;;;;;;;2.86;93.53;94448.27;109089;1273;22519;-83
2023/02/25 05:03:46;;;;;;;4.30;2.30;;;;;;;2.52;93.38;94452.98;109042;1274;22536;-83
2023/02/25 05:06:17;;;;;;;2.10;1.80;;;;;;;2.29;93.60;94473.95;109045;1272;22576;-82
2023/02/25 05:08:49;;;;;;;3.00;1.90;;;;;;;2.16;93.99;94478.59;109057;1273;22628;-82
2023/02/25 05:11:21;;;;;;;5.20;3.00;;;;;;;2.11;94.50;94485.79;108678;1273;22526;-84
2023/02/25 05:13:54;;;;;;;6.20;3.30;;;;;;;2.07;94.86;94482.17;108752;1273;23804;-82
2023/02/25 05:16:26;;;;;;;5.00;3.80;;;;;;;2.07;95.05;94486.25;108741;1270;22523;-81
2023/02/25 05:18:57;;;;;;;4.60;2.80;;;;;;;2.08;95.20;94486.19;108744;1275;22521;-82
2023/02/25 05:21:29;;;;;;;4.30;2.80;;;;;;;2.09;94.97;94488.42;108741;1275;22504;-82
2023/02/25 05:24:00;;;;;;;7.30;4.40;;;;;;;2.10;94.90;94493.95;108689;1274;22517;-82
2023/02/25 05:26:31;;;;;;;4.20;3.10;;;;;;;2.09;94.56;94482.62;108689;1272;23062;-82
2023/02/25 05:29:02;;;;;;;5.80;2.90;;;;;;;2.05;94.46;94482.52;108731;1274;23877;-82
2023/02/25 05:31:33;;;;;;;6.10;3.60;;;;;;;2.01;94.42;94504.73;108707;1274;22536;-82
2023/02/25 05:34:04;;;;;;;4.70;2.90;;;;;;;1.97;94.49;94506.73;108728;1273;22504;-81
2023/02/25 05:36:35;;;;;;;3.70;2.40;;;;;;;1.95;94.75;94499.33;108678;1272;22517;-82
2023/02/25 05:39:07;;;;;;;4.60;2.20;;;;;;;1.95;94.49;94503.50;108735;1273;22644;-81
2023/02/25 05:41:38;;;;;;;3.70;2.60;;;;;;;1.97;94.31;94514.05;108714;1273;22607;-82
2023/02/25 05:44:11;;;;;;;5.10;2.70;;;;;;;1.97;94.06;94518.76;108773;1273;22685;-83
2023/02/25 05:46:42;;;;;;;4.40;2.80;;;;;;;1.99;93.77;94519.11;109086;1273;22659;-82
2023/02/25 05:49:13;;;;;;;5.10;2.90;;;;;;;1.99;93.77;94523.92;108729;1273;22588;-83
2023/02/25 05:51:44;;;;;;;4.80;2.90;;;;;;;1.97;94.07;94522.67;108710;1273;22538;-82
2023/02/25 05:54:15;;;;;;;3.60;2.70;;;;;;;1.95;93.96;94523.95;108754;1273;22637;-82
2023/02/25 05:56:46;;;;;;;5.80;3.50;;;;;;;1.95;93.88;94530.73;108692;1271;22528;-83
2023/02/25 05:59:17;;;;;;;5.60;3.60;;;;;;;1.97;93.92;94528.31;108746;1274;22518;-83
2023/02/25 06:01:48;;;;;;;5.70;3.40;;;;;;;1.96;93.64;94531.24;108650;1273;22550;-82
2023/02/25 06:04:19;;;;;;;4.90;3.20;;;;;;;1.93;93.41;94528.02;108673;1274;22564;-82
2023/02/25 06:06:50;;;;;;;5.00;3.30;;;;;;;1.90;93.11;94531.98;108735;1273;22539;-82
2023/02/25 06:09:22;;;;;;;5.00;3.20;;;;;;;1.90;92.98;94535.13;108702;1272;22522;-81
2023/02/25 06:11:53;;;;;;;5.20;3.60;;;;;;;1.91;92.93;94532.55;108705;1275;22599;-82
2023/02/25 06:14:25;;;;;;;3.90;2.60;;;;;;;1.88;93.09;94533.09;108737;1274;23085;-82
2023/02/25 06:16:56;;;;;;;2.20;1.90;;;;;;;1.85;93.11;94527.65;108747;1273;22544;-82
2023/02/25 06:19:27;;;;;;;4.90;3.20;;;;;;;1.80;93.30;94535.66;108746;1273;22952;-82
2023/02/25 06:21:59;;;;;;;5.60;3.50;;;;;;;1.73;93.82;94533.48;108711;1272;22534;-81
2023/02/25 06:24:30;;;;;;;6.90;5.00;;;;;;;1.71;94.09;94542.48;108745;1274;22533;-82
2023/02/25 06:27:01;;;;;;;7.50;5.20;;;;;;;1.70;94.17;94536.42;108692;1274;24212;-82
2023/02/25 06:29:32;;;;;;;7.00;4.20;;;;;;;1.73;94.68;94535.58;109091;1268;25424;-82
2023/02/25 06:32:04;;;;;;;7.90;5.00;;;;;;;1.73;94.64;94539.43;108191;1274;25373;-82
2023/02/25 06:34:35;;;;;;;7.70;4.50;;;;;;;1.77;94.88;94539.66;108574;1269;22583;-82
2023/02/25 06:37:07;;;;;;;6.80;4.30;;;;;;;1.76;94.87;94542.13;108575;1274;23039;-82
2023/02/25 06:39:42;;;;;;;7.70;5.70;;;;;;;1.73;95.08;94538.23;108547;1273;22521;-81
2023/02/25 06:42:13;;;;;;;6.20;4.50;;;;;;;1.73;95.11;94531.23;108556;1274;23863;-82
2023/02/25 06:44:44;;;;;;;4.90;3.80;;;;;;;1.74;95.26;94530.39;108542;1274;22533;-81
2023/02/25 06:47:15;;;;;;;5.20;3.90;;;;;;;1.74;95.54;94525.89;108518;1273;22535;-82
2023/02/25 06:49:47;;;;;;;6.20;4.10;;;;;;;1.74;95.88;94531.34;108583;1268;22524;-82
2023/02/25 06:53:11;;;;;;;5.00;3.00;;;;;;;1.76;95.93;94528.80;108520;1267;23104;-81
2023/02/25 06:55:42;;;;;;;5.50;4.20;;;;;;;1.79;95.98;94529.98;108518;1274;22604;-82
2023/02/25 06:58:14;;;;;;;5.80;4.10;;;;;;;1.84;96.04;94535.48;108570;1273;28330;-82
2023/02/25 07:00:45;;;;;;;7.20;5.50;;;;;;;1.88;95.96;94529.86;108456;1274;33749;-82
2023/02/25 07:03:18;;;;;;;8.50;5.50;;;;;;;1.91;95.89;94530.20;108518;1274;22523;-82
2023/02/25 07:05:50;;;;;;;7.50;4.90;;;;;;;1.90;95.79;94522.67;108595;1274;22528;-82
2023/02/25 07:08:24;;;;;;;7.10;4.90;;;;;;;1.89;95.91;94519.45;108594;1273;24102;-82
2023/02/25 07:10:57;;;;;;;5.50;4.00;;;;;;;1.90;95.94;94522.83;108529;1264;22659;-81
2023/02/25 07:13:28;;;;;;;6.50;5.10;;;;;;;1.96;95.76;94523.21;108562;1273;22600;-82
2023/02/25 07:15:59;;;;;;;7.00;4.60;;;;;;;2.06;95.88;94520.19;108587;1274;25375;-81
2023/02/25 07:18:32;;;;;;;7.10;4.50;;;;;;;2.10;95.59;94522.54;108612;1274;23917;-82
2023/02/25 07:21:04;;;;;;;5.50;4.20;;;;;;;2.11;95.44;94517.16;109098;1257;23302;-82
2023/02/25 07:23:36;;;;;;;6.20;4.50;;;;;;;2.13;95.06;94519.71;109100;1274;22525;-82
2023/02/25 07:26:09;;;;;;;4.70;3.70;;;;;;;2.14;94.74;94509.04;109103;1270;22939;-82
2023/02/25 07:28:41;;;;;;;6.60;4.30;;;;;;;2.19;94.42;94511.55;109102;1273;22570;-82
2023/02/25 07:31:15;;;;;;;6.50;3.90;;;;;;;2.24;94.02;94501.92;109060;1274;58332;-81
2023/02/25 07:33:48;;;;;;;5.20;3.50;;;;;;;2.20;93.54;94505.68;109098;1273;22532;-81
2023/02/25 07:36:20;;;;;;;6.40;3.30;;;;;;;2.14;93.40;94505.59;109102;1267;22653;-82
2023/02/25 07:38:51;;;;;;;4.40;3.90;;;;;;;2.60;93.98;94509.78;109056;1273;22535;-83
2023/02/25 07:41:24;;;;;;;4.80;3.80;;;;;;;3.74;93.42;94499.19;109076;1274;31184;-81
2023/02/25 07:43:55;;;;;;;3.70;3.10;;;;;;;5.09;91.98;94496.45;109136;1271;22531;-82
2023/02/25 07:46:27;;;;;;;3.40;2.50;;;;;;;6.24;88.32;94489.33;109144;1267;22553;-81
2023/02/25 07:48:58;;;;;;;2.80;2.20;;;;;;;7.18;84.41;94483.05;109171;1273;23923;-81
2023/02/25 07:51:29;;;;;;;3.50;2.30;;;;;;;7.34;75.51;94477.74;109021;1274;23358;-81
2023/02/25 07:54:00;;;;;;;3.30;2.80;;;;;;;7.37;72.97;94471.80;109084;1274;22523;-80
2023/02/25 07:56:32;;;;;;;2.60;2.30;;;;;;;7.62;70.61;94465.24;109126;1273;22592;-81
2023/02/25 07:59:03;;;;;;;3.10;2.60;;;;;;;7.83;69.84;94466.58;108762;1273;24001;-81
2023/02/25 08:01:38;;;;;;;2.50;2.30;;;;;;;8.21;68.49;94467.70;109079;1273;22725;-81
2023/02/25 08:04:09;;;;;;;3.90;2.90;;;;;;;8.09;64.37;94470.99;108675;1273;22599;-81
2023/02/25 08:06:42;;;;;;;4.10;2.70;;;;;;;7.90;64.91;94466.27;108698;1273;22627;-80
2023/02/25 08:09:14;;;;;;;4.70;2.80;;;;;;;7.94;64.39;94461.47;108724;1267;22537;-80
2023/02/25 08:11:46;;;;;;;3.70;3.00;;;;;;;8.09;63.60;94479.91;108708;1273;22930;-81
2023/02/25 08:14:17;;;;;;;2.60;2.00;;;;;;;8.26;63.16;94475.14;108744;1273;22576;-80
2023/02/25 08:16:48;;;;;;;3.60;2.80;;;;;;;7.99;62.05;94443.90;108727;1273;23928;-81
2023/02/25 08:19:19;;;;;;;3.10;2.80;;;;;;;7.80;62.22;94470.73;108694;1273;25610;-80
2023/02/25 08:21:50;;;;;;;3.40;1.80;;;;;;;8.10;63.01;94468.91;108705;1269;22528;-80
2023/02/25 08:24:22;;;;;;;2.40;1.30;;;;;;;8.23;61.71;94470.38;108762;1268;22513;-80
2023/02/25 08:26:53;;;;;;;3.40;1.70;;;;;;;8.18;60.16;94466.85;108720;1261;23041;-79
2023/02/25 08:29:24;;;;;;;2.70;1.40;;;;;;;8.14;60.54;94479.93;108762;1272;24643;-80
2023/02/25 08:31:55;;;;;;;4.80;2.80;;;;;;;8.28;59.49;94471.84;108703;1273;25529;-80
2023/02/25 08:34:26;;;;;;;1.30;1.10;;;;;;;7.65;59.27;94472.90;108734;1270;22525;-80
2023/02/25 08:36:58;;;;;;;2.20;1.40;;;;;;;7.17;61.08;94477.95;108768;1274;22535;-81
2023/02/25 08:39:29;;;;;;;1.90;1.00;;;;;;;6.95;60.43;94456.88;108626;1273;22658;-80
2023/02/25 08:42:00;;;;;;;1.60;1.20;;;;;;;6.46;61.56;94474.98;108717;1273;22521;-80
2023/02/25 08:44:31;;;;;;;1.80;1.20;;;;;;;6.23;63.66;94479.06;108774;1274;22541;-79
2023/02/25 08:47:03;;;;;;;2.10;1.20;;;;;;;6.64;64.36;94472.60;108727;1271;22534;-80
2023/02/25 08:49:34;;;;;;;1.30;0.90;;;;;;;6.46;63.18;94470.92;108784;1270;23880;-80
2023/02/25 08:52:06;;;;;;;1.10;0.80;;;;;;;6.20;63.77;94465.99;108733;1272;44349;-81
2023/02/25 08:54:37;;;;;;;2.10;0.90;;;;;;;5.97;63.59;94463.42;108713;1275;22576;-78
2023/02/25 08:57:08;;;;;;;1.30;0.70;;;;;;;5.86;64.16;94468.88;108717;1275;24189;-80
2023/02/25 08:59:39;;;;;;;2.80;1.30;;;;;;;5.53;63.53;94470.16;108724;1274;22703;-79
2023/02/25 09:02:15;;;;;;;0.80;0.80;;;;;;;5.12;65.69;94470.58;108697;1267;22536;-79
2023/02/25 09:04:47;;;;;;;2.30;0.80;;;;;;;5.23;66.39;94467.13;108749;1274;22527;-80
2023/02/25 09:07:19;;;;;;;1.60;1.00;;;;;;;5.16;65.20;94467.36;108712;1273;24242;-82
2023/02/25 09:09:51;;;;;;;3.00;1.70;;;;;;;4.74;65.81;94474.54;108753;1274;26152;-81
2023/02/25 09:12:25;;;;;;;1.80;1.00;;;;;;;4.66;66.49;94463.37;108745;1274;22534;-82
2023/02/25 09:14:56;;;;;;;2.70;1.20;;;;;;;4.66;65.95;94467.73;108775;1274;22652;-81
2023/02/25 09:17:27;;;;;;;3.10;1.10;;;;;;;4.79;66.56;94481.91;108675;1267;22551;-81
2023/02/25 09:20:00;;;;;;;1.80;1.20;;;;;;;4.77;65.63;94486.91;108708;1274;24307;-81
2023/02/25 09:22:31;;;;;;;6.00;3.90;;;;;;;4.92;65.05;94489.93;108705;1274;23561;-79
2023/02/25 09:25:03;;;;;;;2.40;0.90;;;;;;;5.04;64.95;94497.47;108729;1272;25217;-79
2023/02/25 09:27:35;;;;;;;2.90;2.10;;;;;;;5.11;64.20;94492.32;108718;1274;23823;-78
2023/02/25 09:30:08;;;;;;;3.20;1.80;;;;;;;4.82;63.06;94501.73;108687;1274;22562;-79
2023/02/25 09:32:39;;;;;;;2.10;1.20;;;;;;;4.49;62.98;94502.16;109126;1274;26591;-76
2023/02/25 09:35:11;;;;;;;3.20;1.00;;;;;;;4.29;63.56;94509.92;108720;1274;25656;-80
2023/02/25 09:37:43;;;;;;;1.60;1.10;;;;;;;4.21;63.72;94509.64;108742;1257;25438;-80
2023/02/25 09:40:21;;;;;;;1.70;0.80;;;;;;;4.12;63.25;94504.34;108663;1274;25552;-79
2023/02/25 09:43:06;;;;;;;3.50;1.80;;;;;;;4.06;63.36;94506.73;108742;1275;22602;-79
2023/02/25 09:45:37;;;;;;;3.20;0.90;;;;;;;3.97;63.24;94504.19;108737;1274;25255;-79
2023/02/25 09:48:19;;;;;;;3.50;1.40;;;;;;;3.96;64.16;94510.19;108716;1267;22527;-81
2023/02/25 09:50:55;;;;;;;2.00;0.70;;;;;;;4.20;63.33;94514.49;108725;1274;22558;-81
2023/02/25 09:53:31;;;;;;;1.50;0.60;;;;;;;4.30;62.70;94513.69;108739;1273;25454;-79
2023/02/25 09:56:05;;;;;;;1.50;0.80;;;;;;;4.40;62.74;94512.98;108746;1273;22602;-79
2023/02/25 09:58:41;;;;;;;1.70;1.00;;;;;;;4.29;62.29;94523.83;108688;1270;22536;-79
2023/02/25 10:01:23;;;;;;;1.30;0.80;;;;;;;4.21;62.22;94522.38;108761;1272;39052;-79
2023/02/25 10:04:08;;;;;;;8.90;6.40;;;;;;;4.23;63.34;94524.98;108752;1266;22605;-79
2023/02/25 10:06:42;;;;;;;3.60;1.00;;;;;;;4.38;63.81;94514.13;108737;1273;22551;-80
2023/02/25 10:09:21;;;;;;;2.70;1.40;;;;;;;4.45;63.39;94522.95;108763;1273;22592;-81
2023/02/25 10:12:00;;;;;;;2.50;0.80;;;;;;;4.38;62.07;94513.11;108742;1267;23344;-81
2023/02/25 10:14:54;;;;;;;2.00;1.70;;;;;;;4.20;61.78;94509.33;109034;1273;22694;-81
2023/02/25 10:17:32;;;;;;;2.60;0.90;;;;;;;4.12;61.43;94504.24;109079;1273;24186;-79
2023/02/25 10:20:28;;;;;;;3.50;1.30;;;;;;;4.23;63.31;94524.24;109097;1273;22532;-81
2023/02/25 10:23:06;;;;;;;4.20;3.70;;;;;;;4.43;63.36;94525.61;109132;1256;24196;-79
2023/02/25 10:25:44;;;;;;;0.90;0.70;;;;;;;4.35;63.52;94516.06;109135;1273;22685;-80
2023/02/25 10:28:19;;;;;;;2.70;1.90;;;;;;;4.26;62.94;94527.35;109141;1273;23270;-78
2023/02/25 10:30:57;;;;;;;0.90;0.80;;;;;;;4.48;62.91;94535.13;109111;1273;22524;-79
2023/02/25 10:33:33;;;;;;;2.50;1.10;;;;;;;4.68;62.76;94524.36;109071;1273;24192;-80
2023/02/25 10:36:09;;;;;;;2.30;1.00;;;;;;;4.85;62.25;94518.69;109091;1274;25300;-79
2023/02/25 10:38:44;;;;;;;1.20;1.00;;;;;;;5.00;62.14;94528.41;109075;1273;22562;-79
2023/02/25 10:41:16;;;;;;;2.10;1.00;;;;;;;5.06;61.33;94520.70;109140;1272;22521;-80
2023/02/25 10:43:48;;;;;;;2.00;0.70;;;;;;;5.03;61.33;94517.69;109118;1264;22532;-79
2023/02/25 10:46:23;;;;;;;1.50;0.70;;;;;;;5.20;62.11;94527.29;108502;1267;23481;-80
2023/02/25 10:48:58;;;;;;;1.50;0.60;;;;;;;5.20;61.13;94524.33;109145;1274;22610;-79
2023/02/25 10:51:30;;;;;;;1.10;0.70;;;;;;;5.17;61.16;94519.55;109161;1267;22533;-79
2023/02/25 10:54:07;;;;;;;1.00;0.40;;;;;;;5.15;61.61;94532.21;109112;1273;26310;-79
2023/02/25 10:56:44;;;;;;;1.90;0.80;;;;;;;5.05;61.08;94518.91;109146;1273;22638;-80
2023/02/25 10:59:29;;;;;;;1.00;0.70;;;;;;;5.09;61.47;94517.11;108589;1267;22669;-78
2023/02/25 11:02:01;;;;;;;1.60;0.30;;;;;;;5.03;61.44;94521.73;109116;1273;23666;-79
2023/02/25 11:04:36;;;;;;;1.10;0.50;;;;;;;4.96;60.93;94517.95;109167;1263;24311;-79
2023/02/25 11:07:31;;;;;;;1.80;1.10;;;;;;;5.02;62.14;94510.05;109148;1273;23615;-79
2023/02/25 11:10:15;;;;;;;2.00;0.80;;;;;;;5.18;62.29;94520.65;109147;1268;22624;-79
2023/02/25 11:12:48;;;;;;;2.20;1.10;;;;;;;5.35;61.56;94512.35;109096;1273;57008;-79
2023/02/25 11:15:33;;;;;;;1.80;0.50;;;;;;;5.18;60.70;94508.77;109136;1273;22565;-79
2023/02/25 11:18:16;;;;;;;2.20;0.60;;;;;;;5.20;61.18;94500.52;109148;1273;22646;-79
2023/02/25 11:20:54;;;;;;;2.70;0.90;;;;;;;5.34;61.34;94514.41;109083;1265;79591;-80
2023/02/25 11:23:28;;;;;;;1.50;0.50;;;;;;;5.52;61.69;94499.93;109100;1273;22650;-79
2023/02/25 11:26:00;;;;;;;1.10;0.70;;;;;;;5.58;61.62;94509.90;109253;1273;22550;-79
2023/02/25 11:28:38;;;;;;;0.60;0.50;;;;;;;5.56;60.69;94507.53;109118;1273;22550;-80
2023/02/25 11:31:15;;;;;;;1.70;0.90;;;;;;;5.33;60.95;94510.13;108719;1266;22546;-78
2023/02/25 11:33:53;;;;;;;1.80;0.70;;;;;;;5.19;61.68;94515.31;108811;1270;25442;-79
2023/02/25 11:36:31;;;;;;;0.70;0.50;;;;;;;5.16;62.09;94522.95;108689;1273;22736;-79
2023/02/25 11:39:18;;;;;;;4.10;1.30;;;;;;;5.05;62.65;94524.39;109109;1273;22607;-80
2023/02/25 11:41:51;;;;;;;0.80;0.70;;;;;;;5.08;63.68;94523.59;109120;1267;30122;-80
2023/02/25 11:44:27;;;;;;;2.00;1.00;;;;;;;5.11;64.48;94523.38;108752;1273;22520;-81
2023/02/25 11:47:21;;;;;;;1.60;0.60;;;;;;;5.04;64.64;94526.13;108792;1267;22599;-78
2023/02/25 11:50:13;;;;;;;23.10;8.90;;;;;;;5.03;64.93;94529.09;108764;1267;22612;-79
2023/02/25 11:52:51;;;;;;;1.50;0.90;;;;;;;5.02;64.70;94528.80;108735;1266;22540;-79
2023/02/25 11:55:35;;;;;;;30.30;8.50;;;;;;;4.99;64.48;94537.27;108733;1267;22534;-80
2023/02/25 11:58:17;;;;;;;1.70;1.00;;;;;;;5.12;64.94;94541.98;108780;1273;22688;-80
2023/02/25 12:00:56;;;;;;;1.50;0.70;;;;;;;5.06;63.36;94548.52;108624;1269;22529;-79
2023/02/25 12:03:50;;;;;;;0.90;0.70;;;;;;;4.82;64.00;94547.41;108746;1273;25461;-79
2023/02/25 12:06:43;;;;;;;2.90;1.50;;;;;;;4.61;64.31;94548.64;108756;1272;22700;-79